createdAt,value
2023-01-22T00:04:13.009Z,0.88715
2023-01-22T00:09:14.722Z,0
2023-01-22T00:14:16.688Z,0
2023-01-22T00:19:18.155Z,0.88715
2023-01-22T00:24:19.724Z,0.88715
2023-01-22T00:29:21.209Z,0.88715
2023-01-22T00:34:22.765Z,0.88715
2023-01-22T00:39:24.689Z,0.88715
2023-01-22T00:44:26.501Z,0
2023-01-22T00:49:28.074Z,0
2023-01-22T00:54:29.671Z,0
2023-01-22T00:59:31.179Z,0
2023-01-22T01:04:32.735Z,0
2023-01-22T01:09:34.453Z,0
2023-01-22T01:14:36.119Z,0
2023-01-22T01:19:37.613Z,0
2023-01-22T01:24:39.088Z,0
2023-01-22T01:29:41.150Z,0.88715
2023-01-22T01:34:43.034Z,0
2023-01-22T01:39:44.819Z,0
2023-01-22T01:44:47.005Z,0
2023-01-22T01:49:48.981Z,0
2023-01-22T01:54:51.026Z,0
2023-01-22T01:59:52.764Z,0
2023-01-22T02:04:54.271Z,0
2023-01-22T02:09:55.749Z,0
2023-01-22T02:14:57.592Z,0.88715
2023-01-22T02:19:59.093Z,0.88715
2023-01-22T02:25:00.572Z,0
2023-01-22T02:30:02.437Z,0
2023-01-22T02:35:03.913Z,0.88715
2023-01-22T02:40:05.521Z,0
2023-01-22T02:45:07.670Z,0
2023-01-22T02:50:09.120Z,0
2023-01-22T02:55:10.766Z,0.88715
2023-01-22T03:00:12.294Z,0.88715
2023-01-22T03:05:14.124Z,0.88715
2023-01-22T03:10:15.778Z,0.4148
2023-01-22T03:15:17.508Z,0.88885
2023-01-22T03:20:19.547Z,2.4888
2023-01-22T03:25:21.112Z,8.4467
2023-01-22T03:30:23.116Z,13.2234
2023-01-22T03:35:24.673Z,31.2045
2023-01-22T03:40:26.166Z,46.80675
2023-01-22T03:45:27.838Z,75.6134
2023-01-22T03:50:29.356Z,104.2356
2023-01-22T03:55:30.846Z,134.99705
2023-01-22T04:00:32.976Z,170.82995
2023-01-22T04:05:34.473Z,199.8762
2023-01-22T04:10:36.038Z,229.1069
2023-01-22T04:15:38.088Z,306.63895
2023-01-22T04:20:39.875Z,294.6687
2023-01-22T04:25:41.831Z,396.54445
2023-01-22T04:30:44.070Z,403.4414
2023-01-22T04:35:45.986Z,360.9683
2023-01-22T04:40:47.887Z,373.26945
2023-01-22T04:45:49.642Z,391.98835
2023-01-22T04:50:51.501Z,411.44505
2023-01-22T04:55:53.318Z,427.36105
2023-01-22T05:00:54.916Z,461.0737
2023-01-22T05:05:56.950Z,515.95825
2023-01-22T05:10:58.805Z,559.16915
2023-01-22T05:16:00.547Z,583.606
2023-01-22T05:21:02.265Z,617.2635
2023-01-22T05:26:03.780Z,643.28625
2023-01-22T05:31:05.545Z,657.8388
2023-01-22T05:36:07.027Z,662.39675
2023-01-22T05:41:08.832Z,676.5271
2023-01-22T05:46:11.529Z,681.38165
2023-01-22T05:51:13.363Z,704.01385
2023-01-22T05:56:15.261Z,708.07545
2023-01-22T06:01:17.227Z,752.6535
2023-01-22T06:06:18.679Z,792.30655
2023-01-22T06:11:20.355Z,817.11415
2023-01-22T06:16:22.106Z,803.44955
2023-01-22T06:21:23.620Z,775.49285
2023-01-22T06:26:25.317Z,790.72805
2023-01-22T06:31:27.138Z,800.3746
2023-01-22T06:36:28.771Z,809.27785
2023-01-22T06:41:30.415Z,827.6476
2023-01-22T06:46:32.509Z,849.57275
2023-01-22T06:51:34.454Z,862.72775
2023-01-22T06:56:36.113Z,882.3418
2023-01-22T07:01:37.929Z,900.7708
2023-01-22T07:06:39.450Z,924.8292
2023-01-22T07:11:40.954Z,940.1768
2023-01-22T07:16:42.738Z,953.0948
2023-01-22T07:21:44.320Z,967.435
2023-01-22T07:26:46.056Z,995.8192
2023-01-22T07:31:49.783Z,1005.18175
2023-01-22T07:36:51.997Z,1028.055
2023-01-22T07:41:53.909Z,1047.37285
2023-01-22T07:46:56.079Z,1043.2841
2023-01-22T07:51:57.812Z,1065.7426
2023-01-22T08:02:05.350Z,1115.9927
2023-01-22T08:07:06.842Z,1127.8441
2023-01-22T08:12:08.699Z,1149.05815
2023-01-22T08:17:10.711Z,1166.0057
2023-01-22T08:22:12.625Z,1189.29385
2023-01-22T08:27:14.541Z,1195.39735
2023-01-22T08:32:16.652Z,1217.0856
2023-01-22T08:37:18.595Z,1227.2185
2023-01-22T08:42:20.121Z,1242.26985
2023-01-22T08:47:21.899Z,1269.29125
2023-01-22T08:52:23.675Z,1282.8612
2023-01-22T08:57:25.233Z,1285.76475
2023-01-22T09:02:26.898Z,1307.6308
2023-01-22T09:07:28.612Z,1327.89685
2023-01-22T09:12:30.171Z,1364.63645
2023-01-22T09:17:31.833Z,1384.9617
2023-01-22T09:22:33.455Z,1421.3457
2023-01-22T09:27:35.063Z,1430.2937
2023-01-22T09:32:36.909Z,1448.72275
2023-01-22T09:37:38.620Z,1467.5073
2023-01-22T09:42:40.237Z,1485.8772
2023-01-22T09:47:42.247Z,1502.3508
2023-01-22T09:52:44.064Z,1523.5057
2023-01-22T09:57:45.541Z,1536.1276
2023-01-22T10:02:47.249Z,1537.6091
2023-01-22T10:07:48.883Z,1556.45295
2023-01-22T10:12:50.385Z,1576.06725
2023-01-22T10:17:52.483Z,1598.9999
2023-01-22T10:22:54.600Z,1616.77715
2023-01-22T10:27:56.371Z,1622.4067
2023-01-22T10:32:58.145Z,1655.6503
2023-01-22T10:37:59.654Z,1658.5539
2023-01-22T10:43:01.132Z,1670.524
2023-01-22T10:48:02.968Z,1665.4278
2023-01-22T10:53:04.540Z,1714.197
2023-01-22T10:58:06.037Z,1738.07785
2023-01-22T11:03:07.923Z,1748.15175
2023-01-22T11:08:09.344Z,1770.55115
2023-01-22T11:13:10.756Z,1820.9413
2023-01-22T11:18:12.530Z,1779.40945
2023-01-22T11:23:13.997Z,1827.7831
2023-01-22T11:28:15.589Z,1930.22935
2023-01-22T11:33:17.521Z,1946.90215
2023-01-22T11:38:19.277Z,1974.04875
2023-01-22T11:43:20.741Z,2005.1601
2023-01-22T11:48:22.526Z,2021.51915
2023-01-22T11:53:23.947Z,2130.9935
2023-01-22T11:58:25.443Z,2174.4973
2023-01-22T12:03:27.020Z,2079.41005
2023-01-22T12:08:28.479Z,2187.1122
2023-01-22T12:13:30.044Z,2204.11405
2023-01-22T12:18:31.710Z,2174.6989
2023-01-22T12:23:33.231Z,2181.07865
2023-01-22T12:28:34.869Z,2249.00215
2023-01-22T12:33:36.329Z,2305.23115
2023-01-22T12:38:37.936Z,950.4957
2023-01-22T12:43:39.401Z,2398.34645
2023-01-22T12:48:41.400Z,2271.6251
2023-01-22T12:53:42.860Z,2418.8853
2023-01-22T12:58:44.795Z,2277.84125
2023-01-22T13:03:46.388Z,871.72395
2023-01-22T13:08:48.308Z,2497.72195
2023-01-22T13:13:50.283Z,2649.2245
2023-01-22T13:18:52.370Z,2565.8262
2023-01-22T13:23:54.206Z,2574.7864
2023-01-22T13:28:56.163Z,2618.2332
2023-01-22T13:33:58.232Z,2661.9386
2023-01-22T13:39:00.108Z,2665.1827
2023-01-22T13:44:02.073Z,2699.2587
2023-01-22T13:49:04.162Z,2628.43915
2023-01-22T13:54:06.015Z,2647.7647
2023-01-22T13:59:07.786Z,2751.1675
2023-01-22T14:04:09.683Z,2668.8036
2023-01-22T14:09:11.501Z,2811.58
2023-01-22T14:14:13.293Z,2837.3423
2023-01-22T14:19:15.294Z,2865.61275
2023-01-22T14:24:17.138Z,2866.2384
2023-01-22T14:29:18.917Z,2837.5592
2023-01-22T14:34:20.955Z,2799.65935
2023-01-22T14:39:22.396Z,2709.84515
2023-01-22T14:44:23.991Z,2658.8512
2023-01-22T14:49:25.756Z,2535.08475
2023-01-22T14:54:27.520Z,2452.9243
2023-01-22T14:59:29.055Z,2459.80225
2023-01-22T15:04:30.612Z,2371.8687
2023-01-22T15:09:32.194Z,2188.498
2023-01-22T15:14:33.741Z,2072.95765
2023-01-22T15:19:41.231Z,1927.2815
2023-01-22T15:24:43.333Z,1771.05555
2023-01-22T15:29:45.098Z,1694.5542
2023-01-22T15:34:46.947Z,1537.9955
2023-01-22T15:39:48.708Z,1403.3275
2023-01-22T15:44:50.489Z,1333.3542
2023-01-22T15:49:52.478Z,1246.70995
2023-01-22T15:54:54.548Z,1146.32695
2023-01-22T15:59:56.471Z,956.38835
2023-01-22T16:04:58.585Z,790.3884
2023-01-22T16:10:00.437Z,684.7495
2023-01-22T16:15:02.229Z,566.33025
2023-01-22T16:20:04.197Z,437.10445
2023-01-22T16:25:06.175Z,345.79565
2023-01-22T16:30:08.187Z,267.2862
2023-01-22T16:35:10.198Z,206.88715
2023-01-22T16:40:11.990Z,154.4556
2023-01-22T16:45:13.749Z,125.5558
2023-01-22T16:50:15.454Z,107.1488
2023-01-22T16:55:16.951Z,73.5103
2023-01-22T17:00:19.269Z,49.11145
2023-01-22T17:05:21.535Z,29.36
2023-01-22T17:10:23.032Z,10.95485
2023-01-22T17:15:24.531Z,3.6147
2023-01-22T17:20:26.302Z,1.53075
2023-01-22T17:25:27.855Z,1.16185
2023-01-22T17:30:29.617Z,0
2023-01-22T17:35:31.601Z,0.88715
2023-01-22T17:40:33.392Z,0.88715
2023-01-22T17:45:35.042Z,0.88715
2023-01-22T17:50:37.146Z,0.88715
2023-01-22T17:55:39.089Z,0
2023-01-22T18:00:40.731Z,0
2023-01-22T18:05:42.709Z,0.88715
2023-01-22T18:10:44.612Z,0.88715
2023-01-22T18:15:46.639Z,0.88715
2023-01-22T18:20:48.853Z,0
2023-01-22T18:25:50.635Z,0
2023-01-22T18:30:52.584Z,0
2023-01-22T18:35:54.694Z,0
2023-01-22T18:40:56.516Z,0.88715
2023-01-22T18:45:58.163Z,0.88715
2023-01-22T18:51:00.197Z,0
2023-01-22T18:56:02.059Z,0.88715
2023-01-22T19:01:03.868Z,0
2023-01-22T19:06:05.805Z,0.88715
2023-01-22T19:11:07.850Z,0.88715
2023-01-22T19:16:09.794Z,0.88715
2023-01-22T19:21:11.815Z,0.88715
2023-01-22T19:26:13.615Z,0.88715
2023-01-22T19:31:15.383Z,0.88715
2023-01-22T19:36:17.589Z,0
2023-01-22T19:41:19.085Z,0
2023-01-22T19:46:20.933Z,0
2023-01-22T19:51:23.004Z,0
2023-01-22T19:56:24.548Z,0
2023-01-22T20:01:26.235Z,0.88715
2023-01-22T20:06:28.185Z,0.88715
2023-01-22T20:11:29.867Z,0
2023-01-22T20:16:31.572Z,0
2023-01-22T20:21:33.275Z,0.88715
2023-01-22T20:26:34.844Z,0.88715
2023-01-22T20:31:36.379Z,0.88715
2023-01-22T20:36:37.956Z,0.88715
2023-01-22T20:41:39.404Z,0
2023-01-22T20:46:41.086Z,0.88715
2023-01-22T20:51:42.854Z,0
2023-01-22T20:56:44.461Z,0.88715
2023-01-22T21:01:46.147Z,0
2023-01-22T21:06:48.388Z,0.88715
2023-01-22T21:11:49.894Z,0.88715
2023-01-22T21:16:51.692Z,0.88715
2023-01-22T21:27:04.023Z,0.88715
2023-01-22T21:32:05.728Z,0
2023-01-22T21:37:07.274Z,0
2023-01-22T21:42:09.080Z,0.88715
2023-01-22T21:47:11.194Z,0.88715
2023-01-22T21:52:12.737Z,0
2023-01-22T21:57:14.510Z,0
2023-01-22T22:02:16.610Z,0
2023-01-22T22:07:18.597Z,0
2023-01-22T22:12:20.469Z,0.88715
2023-01-22T22:17:22.343Z,0
2023-01-22T22:22:23.810Z,0
2023-01-22T22:27:27.671Z,0.88715
2023-01-22T22:32:29.304Z,0
2023-01-22T22:37:30.921Z,0.88715
2023-01-22T22:42:32.365Z,0
2023-01-22T22:47:34.073Z,0
2023-01-22T22:52:35.590Z,0
2023-01-22T22:57:37.685Z,0
2023-01-22T23:02:39.430Z,0
2023-01-22T23:07:41.111Z,0
2023-01-22T23:12:43.155Z,0
2023-01-22T23:17:44.929Z,0
2023-01-22T23:22:46.693Z,0.88715
2023-01-22T23:27:49.594Z,0.88715
2023-01-22T23:32:51.453Z,0
2023-01-22T23:37:53.259Z,0.88715
2023-01-22T23:42:54.942Z,0
2023-01-22T23:47:56.831Z,0
2023-01-22T23:52:58.594Z,0
2023-01-22T23:58:01.070Z,0
